Melfa, VA

6:39 PM EDT on May 24, 2017 (GMT -0400)
Accomack County

Weather History for KMFV - December, 2013

Change the Weather History Date:

Monday, December 23, 2013

  Actual Average (KWAL) Record (KWAL)
Temperature  
Mean Temperature 62 °F -  
Max Temperature 75 °F 45 °F 68 °F (2013)
Min Temperature 46 °F 29 °F 8 °F (1989)
Degree Days  
Heating Degree Days 4    
Growing Degree Days 12 (Base 50)    
Moisture  
Dew Point 61 °F    
Average Humidity 86    
Maximum Humidity 88    
Minimum Humidity 78    
Precipitation  
Precipitation 1.71 in - - ()
Sea Level Pressure  
Sea Level Pressure 30.05 in    
Wind  
Wind Speed 11 mph (WSW)    
Max Wind Speed 21 mph    
Max Gust Speed 32 mph    
Visibility 9 miles    
Events Rain    
Averages and records for this station are not official NWS values.
T = Trace of Precipitation, MM = Missing Value Source: NWS Daily Summary

Daily Weather History Graph

Daily Weather History Graph

Search for Another Location

Airport or City:

Trip Planner

Search our weather history database for the weather conditions in past years. The results will help you decide how hot, cold, wet, or windy it might be!

Date:

Astronomy

Dec. 23, 2013 Rise Set
Actual Time 7:15 AM EST 4:49 PM EST
Civil Twilight 6:46 AM EST 5:18 PM EST
Nautical Twilight 6:13 AM EST 5:51 PM EST
Astronomical Twilight 5:41 AM EST 6:23 PM EST
Moon 10:50 PM EST (12/23) 10:45 AM EST (12/23)
Length of Visible Light 10h 32m
Length of Day
9h 33m
Waning Gibbous, 68% of the Moon is Illuminated
Dec 23
Waning Gibbous
Dec 25
Last Quarter
Jan 1
New
Jan 7
First Quarter
Jan 15
Full

Hourly Weather History & Observations

Time (EST) Temp. Windchill Dew Point Humidity Pressure Visibility Wind Dir Wind Speed Gust Speed Precip Events Conditions
12:16 AM 69.8 °F - 62.6 °F 78% 30.02 in 10.0 mi South 10.4 mph 20.7 mph N/A   Clear
12:35 AM 69.8 °F - 64.4 °F 83% 30.01 in 10.0 mi South 13.8 mph 23.0 mph N/A   Clear
12:55 AM 69.8 °F - 64.4 °F 83% 30.02 in 10.0 mi SSW 11.5 mph 25.3 mph N/A   Mostly Cloudy
1:15 AM 69.8 °F - 64.4 °F 83% 30.02 in 7.0 mi SSW 12.7 mph 21.9 mph N/A   Overcast
1:35 AM 69.8 °F - 66.2 °F 88% 30.02 in 7.0 mi SSW 12.7 mph 18.4 mph N/A   Mostly Cloudy
1:55 AM 69.8 °F - 66.2 °F 88% 30.02 in 10.0 mi SSW 10.4 mph 19.6 mph N/A   Scattered Clouds
2:15 AM 69.8 °F - 66.2 °F 88% 30.03 in 10.0 mi SSW 11.5 mph 17.3 mph N/A   Clear
2:35 AM 69.8 °F - 66.2 °F 88% 30.03 in 10.0 mi SSW 9.2 mph 16.1 mph N/A   Clear
2:55 AM 71.6 °F - 66.2 °F 83% 30.02 in 10.0 mi SSW 8.1 mph - N/A   Scattered Clouds
3:15 AM 71.6 °F - 68.0 °F 88% 30.02 in 10.0 mi SSW 12.7 mph 19.6 mph N/A   Clear
3:36 AM 73.4 °F - 68.0 °F 83% 30.02 in 10.0 mi SSW 12.7 mph 19.6 mph N/A   Scattered Clouds
3:55 AM 73.4 °F - 68.0 °F 83% 30.02 in 10.0 mi SSW 10.4 mph 18.4 mph N/A   Overcast
4:16 AM 73.4 °F - 69.8 °F 88% 30.02 in 10.0 mi SSW 13.8 mph 26.5 mph N/A   Mostly Cloudy
4:35 AM 75.2 °F - 69.8 °F 83% 30.02 in 10.0 mi SW 18.4 mph 25.3 mph N/A   Overcast
4:55 AM 75.2 °F - 69.8 °F 83% 30.02 in 10.0 mi SW 13.8 mph 24.2 mph N/A   Overcast
5:15 AM 75.2 °F - 69.8 °F 83% 30.02 in 10.0 mi SW 20.7 mph 25.3 mph N/A   Overcast
5:35 AM 75.2 °F - 69.8 °F 83% 30.01 in 10.0 mi SSW 19.6 mph 27.6 mph N/A   Mostly Cloudy
5:55 AM 75.2 °F - 69.8 °F 83% 30.01 in 10.0 mi SW 17.3 mph 24.2 mph N/A   Mostly Cloudy
6:15 AM 75.2 °F - 69.8 °F 83% 30.01 in 10.0 mi SSW 9.2 mph 16.1 mph 0.01 in   Overcast
6:35 AM 73.4 °F - 69.8 °F 88% 30.02 in 7.0 mi West 4.6 mph - 0.12 in Rain Heavy Rain
6:55 AM 71.6 °F - 68.0 °F 88% 30.04 in 5.0 mi SW 12.7 mph 25.3 mph 0.53 in Rain Heavy Rain
7:15 AM 71.6 °F - 66.2 °F 83% 30.05 in 10.0 mi SW 15.0 mph 21.9 mph 0.15 in Rain Heavy Rain
7:35 AM 69.8 °F - 66.2 °F 88% 30.02 in 10.0 mi SW 8.1 mph - 0.24 in Rain Light Rain
7:55 AM 69.8 °F - 66.2 °F 88% 30.03 in 10.0 mi South 9.2 mph - 0.24 in   Overcast
8:15 AM 69.8 °F - 66.2 °F 88% 30.05 in 10.0 mi SSW 6.9 mph - N/A   Overcast
8:35 AM 69.8 °F - 66.2 °F 88% 30.06 in 10.0 mi South 6.9 mph - N/A   Overcast
8:56 AM 69.8 °F - 66.2 °F 88% 30.05 in 10.0 mi SSW 5.8 mph - N/A Rain Light Rain
9:15 AM 69.8 °F - 66.2 °F 88% 30.06 in 7.0 mi South 4.6 mph - 0.01 in Rain Light Rain
9:37 AM 69.8 °F - 66.2 °F 88% 30.06 in 7.0 mi SSW 10.4 mph - 0.01 in Rain Light Rain
9:55 AM 69.8 °F - 64.4 °F 83% 30.08 in 3.0 mi SW 9.2 mph - 0.10 in Rain Heavy Rain
10:15 AM 69.8 °F - 66.2 °F 88% 30.07 in 5.0 mi SW 9.2 mph 16.1 mph 0.20 in Rain Rain
10:35 AM 69.8 °F - 66.2 °F 88% 30.08 in 4.0 mi SW 11.5 mph - 0.28 in Rain Heavy Rain
10:55 AM 69.8 °F - 66.2 °F 88% 30.06 in 5.0 mi SW 9.2 mph 17.3 mph 0.38 in Rain Heavy Rain
11:15 AM 69.8 °F - 66.2 °F 88% 30.03 in 10.0 mi SSW 4.6 mph - N/A   Mostly Cloudy
11:35 AM 69.8 °F - 66.2 °F 88% 30.01 in 2.5 mi South 11.5 mph 18.4 mph 0.07 in Rain Heavy Rain
11:55 AM 69.8 °F - 66.2 °F 88% 30.00 in 10.0 mi SSE 8.1 mph - 0.08 in Rain Light Rain
12:16 PM 69.8 °F - 66.2 °F 88% 29.99 in 10.0 mi SSE 6.9 mph - N/A Rain Light Rain
12:35 PM 69.8 °F - 66.2 °F 88% 29.99 in 10.0 mi South 6.9 mph - N/A Rain Light Rain
12:55 PM 69.8 °F - 66.2 °F 88% 30.00 in 10.0 mi South 8.1 mph - N/A   Mostly Cloudy
1:15 PM 69.8 °F - 66.2 °F 88% 30.00 in 7.0 mi South 4.6 mph - N/A Rain Light Rain
1:35 PM 69.8 °F - 66.2 °F 88% 29.99 in 10.0 mi SSW 9.2 mph - 0.02 in Rain Rain
1:55 PM 71.6 °F - 66.2 °F 83% 29.98 in 7.0 mi SSW 10.4 mph 16.1 mph 0.02 in Rain Rain
2:15 PM 71.6 °F - 66.2 °F 83% 29.98 in 10.0 mi SSW 10.4 mph 17.3 mph 0.02 in Rain Light Rain
2:35 PM 69.8 °F - 66.2 °F 88% 29.97 in 10.0 mi SW 8.1 mph - 0.02 in   Mostly Cloudy
2:55 PM 69.8 °F - 66.2 °F 88% 29.98 in 10.0 mi SW 8.1 mph - 0.02 in   Overcast
3:15 PM 69.8 °F - 66.2 °F 88% 30.00 in 10.0 mi SW 10.4 mph - N/A Rain Light Rain
3:35 PM 69.8 °F - 66.2 °F 88% 29.99 in 10.0 mi WSW 9.2 mph - 0.01 in Rain Light Rain
3:55 PM 69.8 °F - 66.2 °F 88% 30.01 in 10.0 mi WNW 19.6 mph 25.3 mph 0.01 in Rain Light Rain
4:15 PM 62.6 °F - 57.2 °F 82% 30.03 in 10.0 mi NNW 10.4 mph 16.1 mph 0.01 in Rain Light Rain
4:36 PM 60.8 °F - 57.2 °F 88% 30.04 in 10.0 mi NNW 9.2 mph - 0.02 in Rain Light Rain
4:55 PM 60.8 °F - 57.2 °F 88% 30.04 in 10.0 mi NNW 6.9 mph - 0.02 in Rain Rain
5:15 PM 60.8 °F - 57.2 °F 88% 30.04 in 10.0 mi NNW 9.2 mph - 0.01 in   Drizzle
5:35 PM 60.8 °F - 57.2 °F 88% 30.05 in 10.0 mi NNW 10.4 mph - 0.05 in Rain Rain
5:56 PM 60.8 °F - 55.4 °F 82% 30.05 in 10.0 mi North 10.4 mph 23.0 mph N/A Rain Light Rain
6:15 PM 59.0 °F - 55.4 °F 88% 30.08 in 10.0 mi North 13.8 mph 20.7 mph N/A Rain Light Rain
6:35 PM 59.0 °F - 55.4 °F 88% 30.08 in 10.0 mi North 16.1 mph - 0.01 in Rain Rain
6:55 PM 55.4 °F - 51.8 °F 88% 30.12 in 4.0 mi NNW 15.0 mph 32.2 mph 0.01 in   Drizzle
7:15 PM 53.6 °F - 50.0 °F 88% 30.12 in 5.0 mi NNW 19.6 mph 32.2 mph 0.01 in   Drizzle
7:35 PM 53.6 °F - 50.0 °F 88% 30.12 in 7.0 mi North 11.5 mph 23.0 mph 0.01 in   Light Drizzle
7:55 PM 53.6 °F - 48.2 °F 82% 30.12 in 10.0 mi North 10.4 mph 23.0 mph 0.02 in   Overcast
8:15 PM 53.6 °F - 48.2 °F 82% 30.12 in 5.0 mi North 10.4 mph 21.9 mph 0.01 in Rain Rain
8:35 PM 51.8 °F - 48.2 °F 88% 30.11 in 7.0 mi North 10.4 mph 17.3 mph 0.03 in Rain Heavy Rain
8:56 PM 51.8 °F - 48.2 °F 88% 30.11 in 7.0 mi NNW 15.0 mph 25.3 mph 0.01 in Rain Heavy Rain
9:15 PM 51.8 °F - 48.2 °F 88% 30.13 in 4.0 mi NNW 11.5 mph 19.6 mph 0.07 in Rain Rain
9:35 PM 51.8 °F - 46.4 °F 82% 30.13 in 10.0 mi NNW 16.1 mph 21.9 mph 0.09 in Rain Rain
9:55 PM 50.0 °F - 46.4 °F 87% 30.14 in 10.0 mi NNW 13.8 mph 24.2 mph 0.10 in   Drizzle
10:15 PM 48.2 °F - 44.6 °F 87% 30.14 in 7.0 mi North 15.0 mph 23.0 mph 0.02 in Rain Light Rain
10:35 PM 48.2 °F - 44.6 °F 87% 30.15 in 10.0 mi NNW 11.5 mph 20.7 mph 0.03 in Rain Light Rain
10:56 PM 48.2 °F - 44.6 °F 87% 30.17 in 10.0 mi NNW 13.8 mph 21.9 mph N/A Rain Rain
11:15 PM 48.2 °F - 44.6 °F 87% 30.16 in 10.0 mi North 11.5 mph 20.7 mph 0.02 in Rain Light Rain
11:35 PM 48.2 °F - 44.6 °F 87% 30.17 in 7.0 mi North 13.8 mph 19.6 mph 0.05 in Rain Rain
11:55 PM 46.4 °F 41.5 °F 42.8 °F 87% 30.15 in 10.0 mi North 10.4 mph 23.0 mph 0.07 in Rain Light Rain